createdAt,value
2019-03-18T00:00:47.346Z,10.69
2019-03-18T00:03:14.756Z,10.49
2019-03-18T00:05:42.259Z,10.38
2019-03-18T00:08:09.747Z,10.30
2019-03-18T00:10:37.094Z,10.24
2019-03-18T00:13:04.744Z,10.22
2019-03-18T00:15:32.361Z,10.36
2019-03-18T00:17:59.829Z,10.10
2019-03-18T00:20:27.295Z,10.00
2019-03-18T00:22:54.834Z,9.93
2019-03-18T00:25:22.248Z,9.82
2019-03-18T00:27:49.756Z,9.83
2019-03-18T00:30:17.469Z,9.80
2019-03-18T00:32:44.858Z,9.80
2019-03-18T00:35:12.537Z,9.70
2019-03-18T00:37:40.021Z,9.69
2019-03-18T00:40:08.422Z,9.62
2019-03-18T00:42:35.866Z,9.51
2019-03-18T00:45:14.160Z,9.38
2019-03-18T00:47:32.839Z,9.29
2019-03-18T00:50:00.438Z,9.13
2019-03-18T00:52:28.002Z,9.19
2019-03-18T00:54:55.955Z,9.23
2019-03-18T00:57:23.493Z,9.12
2019-03-18T00:59:51.111Z,9.26
2019-03-18T01:02:18.597Z,9.54
2019-03-18T01:04:46.200Z,9.85
2019-03-18T01:07:13.685Z,9.82
2019-03-18T01:09:42.531Z,9.89
2019-03-18T01:12:10.080Z,10.00
2019-03-18T01:14:37.563Z,9.96
2019-03-18T01:17:05.025Z,10.09
2019-03-18T01:19:32.530Z,10.20
2019-03-18T01:21:59.967Z,10.23
2019-03-18T01:24:27.533Z,10.49
2019-03-18T01:26:54.999Z,10.37
2019-03-18T01:29:22.398Z,10.24
2019-03-18T01:31:49.832Z,10.27
2019-03-18T01:34:17.330Z,10.47
2019-03-18T01:36:44.745Z,10.48
2019-03-18T01:39:12.177Z,10.61
2019-03-18T01:41:39.635Z,10.80
2019-03-18T01:44:06.994Z,10.53
2019-03-18T01:46:34.513Z,10.71
2019-03-18T01:49:01.952Z,10.60
2019-03-18T01:51:29.446Z,10.50
2019-03-18T01:53:57.046Z,10.49
2019-03-18T01:56:24.590Z,10.61
2019-03-18T01:58:52.004Z,10.56
2019-03-18T02:01:19.494Z,10.48
2019-03-18T02:03:46.955Z,10.30
2019-03-18T02:06:14.427Z,10.38
2019-03-18T02:08:41.819Z,10.04
2019-03-18T02:11:09.245Z,9.90
2019-03-18T02:13:36.776Z,9.78
2019-03-18T02:16:04.137Z,9.69
2019-03-18T02:18:31.614Z,9.52
2019-03-18T02:20:59.066Z,9.48
2019-03-18T02:23:26.457Z,9.21
2019-03-18T02:25:54.398Z,9.24
2019-03-18T02:28:21.846Z,9.35
2019-03-18T02:30:49.210Z,9.05
2019-03-18T02:33:16.674Z,8.40
2019-03-18T02:35:44.133Z,8.20
2019-03-18T02:38:11.533Z,7.81
2019-03-18T02:40:38.964Z,7.68
2019-03-18T02:43:06.413Z,7.71
2019-03-18T02:45:33.857Z,7.62
2019-03-18T02:48:01.218Z,7.67
2019-03-18T02:50:28.673Z,7.58
2019-03-18T02:52:56.130Z,7.65
2019-03-18T02:55:23.720Z,7.73
2019-03-18T02:57:51.236Z,7.68
2019-03-18T03:00:18.713Z,7.70
2019-03-18T03:02:46.151Z,7.82
2019-03-18T03:05:14.181Z,7.94
2019-03-18T03:07:41.651Z,8.06
2019-03-18T03:10:09.532Z,8.17
2019-03-18T03:12:37.025Z,8.34
2019-03-18T03:15:04.741Z,8.12
2019-03-18T03:17:32.214Z,8.10
2019-03-18T03:19:59.610Z,8.28
2019-03-18T03:22:28.239Z,8.07
2019-03-18T03:24:55.665Z,7.94
2019-03-18T03:27:23.051Z,8.09
2019-03-18T03:29:50.496Z,8.11
2019-03-18T03:32:17.961Z,8.13
2019-03-18T03:34:45.323Z,8.34
2019-03-18T03:37:12.830Z,8.15
2019-03-18T03:39:40.256Z,7.72
2019-03-18T03:42:07.764Z,7.75
2019-03-18T03:44:35.340Z,7.82
2019-03-18T03:47:02.946Z,7.78
2019-03-18T03:49:30.361Z,7.84
2019-03-18T03:51:57.818Z,7.84
2019-03-18T03:54:25.248Z,7.62
2019-03-18T03:56:53.083Z,7.79
2019-03-18T03:59:20.638Z,7.52
2019-03-18T04:01:48.400Z,7.60
2019-03-18T04:04:15.777Z,7.66
2019-03-18T04:06:43.254Z,7.73
2019-03-18T04:09:10.773Z,7.73
2019-03-18T04:11:38.213Z,7.80
2019-03-18T04:14:05.652Z,7.81
2019-03-18T04:16:33.153Z,7.97
2019-03-18T04:19:00.538Z,7.87
2019-03-18T04:21:28.079Z,8.12
2019-03-18T04:23:55.521Z,7.88
2019-03-18T04:26:22.894Z,8.02
2019-03-18T04:28:50.341Z,8.01
2019-03-18T04:31:17.812Z,7.96
2019-03-18T04:33:45.222Z,8.29
2019-03-18T04:36:12.680Z,8.25
2019-03-18T04:38:40.125Z,8.09
2019-03-18T04:41:07.556Z,8.33
2019-03-18T04:43:35.059Z,8.28
2019-03-18T04:46:02.504Z,8.29
2019-03-18T04:48:29.930Z,8.30
2019-03-18T04:50:57.932Z,8.22
2019-03-18T04:53:25.946Z,8.30
2019-03-18T04:55:53.866Z,8.66
2019-03-18T04:58:21.420Z,8.67
2019-03-18T05:00:48.830Z,8.67
2019-03-18T05:03:16.334Z,8.82
2019-03-18T05:05:44.137Z,9.11
2019-03-18T05:08:11.645Z,9.31
2019-03-18T05:10:39.120Z,9.47
2019-03-18T05:13:06.600Z,9.50
2019-03-18T05:15:34.294Z,9.57
2019-03-18T05:18:01.782Z,9.13
2019-03-18T05:20:29.285Z,9.14
2019-03-18T05:22:56.651Z,9.08
2019-03-18T05:25:24.134Z,8.94
2019-03-18T05:27:51.599Z,8.78
2019-03-18T05:30:19.008Z,8.71
2019-03-18T05:32:46.507Z,8.65
2019-03-18T05:35:14.060Z,8.68
2019-03-18T05:37:41.502Z,8.64
2019-03-18T05:40:09.208Z,8.61
2019-03-18T05:42:36.997Z,8.64
2019-03-18T05:45:04.623Z,8.53
2019-03-18T05:47:39.168Z,8.66
2019-03-18T05:50:01.551Z,8.65
2019-03-18T05:52:28.996Z,8.61
2019-03-18T05:54:56.481Z,8.92
2019-03-18T05:57:26.085Z,8.76
2019-03-18T05:59:53.379Z,9.00
2019-03-18T06:02:20.928Z,9.31
2019-03-18T06:04:48.421Z,9.56
2019-03-18T06:07:15.890Z,9.63
2019-03-18T06:09:43.383Z,9.76
2019-03-18T06:12:10.830Z,10.01
2019-03-18T06:14:38.279Z,10.13
2019-03-18T06:17:05.724Z,10.13
2019-03-18T06:19:33.092Z,10.25
2019-03-18T06:22:00.589Z,10.38
2019-03-18T06:24:28.246Z,10.44
2019-03-18T06:26:55.688Z,10.66
2019-03-18T06:29:23.149Z,10.62
2019-03-18T06:31:51.045Z,10.37
2019-03-18T06:34:18.512Z,10.26
2019-03-18T06:36:45.965Z,10.40
2019-03-18T06:39:13.412Z,10.43
2019-03-18T06:41:40.892Z,10.37
2019-03-18T06:44:08.365Z,10.32
2019-03-18T06:46:35.758Z,10.38
2019-03-18T06:49:03.311Z,10.58
2019-03-18T06:51:30.853Z,10.97
2019-03-18T06:53:58.335Z,11.06
2019-03-18T06:56:25.917Z,11.18
2019-03-18T06:58:53.380Z,11.32
2019-03-18T07:01:21.203Z,10.96
2019-03-18T07:03:48.610Z,11.31
2019-03-18T07:06:16.193Z,11.50
2019-03-18T07:08:43.685Z,11.58
2019-03-18T07:11:11.167Z,11.70
2019-03-18T07:13:38.682Z,11.89
2019-03-18T07:16:06.223Z,12.08
2019-03-18T07:18:33.743Z,12.37
2019-03-18T07:21:01.267Z,12.59
2019-03-18T07:23:28.750Z,12.77
2019-03-18T07:25:56.189Z,13.00
2019-03-18T07:28:23.634Z,13.06
2019-03-18T07:30:51.123Z,13.29
2019-03-18T07:33:18.590Z,13.35
2019-03-18T07:35:45.989Z,13.37
2019-03-18T07:38:13.430Z,13.55
2019-03-18T07:40:40.878Z,13.74
2019-03-18T07:43:08.316Z,14.10
2019-03-18T07:45:35.832Z,14.13
2019-03-18T07:50:46.153Z,14.32
2019-03-18T07:53:13.673Z,14.46
2019-03-18T07:55:41.105Z,14.42
2019-03-18T07:58:08.590Z,14.34
2019-03-18T08:00:36.083Z,14.31
2019-03-18T08:03:03.748Z,14.59
2019-03-18T08:05:31.223Z,14.84
2019-03-18T08:07:58.694Z,14.86
2019-03-18T08:10:26.206Z,14.81
2019-03-18T08:12:53.690Z,15.12
2019-03-18T08:15:21.131Z,15.21
2019-03-18T08:17:48.640Z,15.17
2019-03-18T08:20:16.140Z,15.14
2019-03-18T08:22:43.566Z,15.14
2019-03-18T08:25:11.185Z,15.18
2019-03-18T08:27:38.681Z,15.25
2019-03-18T08:30:06.986Z,15.27
2019-03-18T08:32:34.396Z,15.32
2019-03-18T08:35:01.897Z,15.54
2019-03-18T08:37:29.399Z,15.88
2019-03-18T08:39:56.847Z,16.03
2019-03-18T08:42:24.290Z,16.02
2019-03-18T08:44:51.809Z,16.35
2019-03-18T08:47:19.283Z,16.44
2019-03-18T08:49:46.818Z,16.22
2019-03-18T08:52:14.267Z,16.05
2019-03-18T08:54:41.717Z,16.26
2019-03-18T08:57:09.399Z,16.37
2019-03-18T08:59:36.956Z,16.18
2019-03-18T09:02:04.458Z,16.20
2019-03-18T09:04:31.905Z,16.21
2019-03-18T09:06:59.456Z,16.16
2019-03-18T09:09:26.974Z,16.41
2019-03-18T09:11:54.413Z,17.00
2019-03-18T09:14:21.911Z,16.95
2019-03-18T09:16:49.455Z,16.76
2019-03-18T09:19:16.902Z,17.16
2019-03-18T09:21:44.388Z,17.39
2019-03-18T09:24:11.869Z,17.59
2019-03-18T09:26:39.390Z,17.59
2019-03-18T09:29:06.922Z,17.78
2019-03-18T09:31:34.458Z,18.07
2019-03-18T09:34:02.048Z,18.38
2019-03-18T09:36:29.645Z,18.61
2019-03-18T09:38:57.157Z,18.77
2019-03-18T09:41:24.695Z,18.94
2019-03-18T09:43:52.219Z,19.39
2019-03-18T09:46:19.689Z,19.74
2019-03-18T09:48:47.121Z,19.64
2019-03-18T09:51:14.633Z,19.51
2019-03-18T09:53:42.182Z,19.32
2019-03-18T09:56:09.701Z,19.27
2019-03-18T09:58:37.243Z,19.23
2019-03-18T10:01:04.831Z,19.33
2019-03-18T10:03:32.302Z,19.51
2019-03-18T10:05:59.826Z,19.76
2019-03-18T10:08:27.225Z,20.08
2019-03-18T10:10:54.927Z,20.09
2019-03-18T10:13:22.439Z,19.94
2019-03-18T10:15:49.849Z,19.79
2019-03-18T10:18:17.407Z,19.68
2019-03-18T10:20:44.935Z,19.61
2019-03-18T10:23:12.434Z,19.80
2019-03-18T10:25:39.974Z,20.36
2019-03-18T10:28:07.618Z,20.42
2019-03-18T10:30:35.167Z,20.62
2019-03-18T10:33:02.697Z,20.83
2019-03-18T10:35:30.224Z,21.06
2019-03-18T10:37:57.740Z,21.16
2019-03-18T10:40:25.289Z,21.38
2019-03-18T10:42:52.979Z,21.70
2019-03-18T10:45:20.421Z,21.75
2019-03-18T10:47:47.964Z,21.70
2019-03-18T10:50:15.450Z,21.91
2019-03-18T10:52:43.109Z,22.00
2019-03-18T10:55:10.766Z,21.98
2019-03-18T10:57:38.202Z,22.01
2019-03-18T11:00:06.805Z,22.26
2019-03-18T11:02:34.322Z,22.30
2019-03-18T11:05:01.908Z,22.17
2019-03-18T11:07:29.444Z,22.26
2019-03-18T11:09:56.884Z,22.23
2019-03-18T11:12:24.407Z,22.27
2019-03-18T11:14:52.463Z,22.39
2019-03-18T11:17:19.895Z,22.49
2019-03-18T11:19:57.882Z,22.50
2019-03-18T11:22:16.824Z,22.58
2019-03-18T11:24:44.334Z,22.56
2019-03-18T11:27:11.788Z,22.59
2019-03-18T11:29:39.224Z,22.57
2019-03-18T11:32:06.661Z,22.64
2019-03-18T11:34:34.187Z,22.88
2019-03-18T11:37:01.680Z,23.04
2019-03-18T11:39:29.254Z,23.29
2019-03-18T11:41:56.783Z,23.30
2019-03-18T11:44:24.287Z,23.21
2019-03-18T11:46:51.771Z,23.22
2019-03-18T11:49:19.314Z,23.34
2019-03-18T11:51:47.390Z,23.32
2019-03-18T11:54:14.972Z,23.43
2019-03-18T11:56:43.660Z,23.45
2019-03-18T11:59:11.236Z,23.34
2019-03-18T12:01:38.847Z,23.53
2019-03-18T12:04:06.380Z,23.44
2019-03-18T12:06:33.962Z,23.72
2019-03-18T12:09:01.493Z,23.84
2019-03-18T12:11:29.042Z,24.05
2019-03-18T12:13:56.561Z,24.01
2019-03-18T12:16:23.993Z,23.94
2019-03-18T12:18:51.536Z,23.81
2019-03-18T12:21:19.090Z,23.90
2019-03-18T12:23:46.652Z,24.13
2019-03-18T12:26:14.245Z,24.05
2019-03-18T12:28:41.875Z,24.06
2019-03-18T12:31:09.374Z,23.90
2019-03-18T12:33:36.934Z,23.77
2019-03-18T12:36:04.455Z,23.86
2019-03-18T12:38:31.981Z,23.90
2019-03-18T12:40:59.564Z,23.82
2019-03-18T12:43:28.622Z,24.31
2019-03-18T12:45:56.054Z,24.39
2019-03-18T12:48:23.520Z,24.59
2019-03-18T12:50:56.316Z,24.46
2019-03-18T12:53:22.311Z,24.52
2019-03-18T12:55:52.825Z,24.29
2019-03-18T12:58:19.565Z,24.18
2019-03-18T13:00:47.099Z,24.15
2019-03-18T13:03:14.688Z,24.32
2019-03-18T13:05:42.274Z,24.33
2019-03-18T13:08:09.765Z,24.86
2019-03-18T13:10:37.323Z,25.02
2019-03-18T13:13:04.894Z,25.07
2019-03-18T13:15:32.388Z,25.14
2019-03-18T13:17:59.924Z,25.17
2019-03-18T13:20:27.462Z,25.37
2019-03-18T13:22:54.943Z,25.19
2019-03-18T13:25:23.156Z,25.02
2019-03-18T13:27:50.696Z,24.85
2019-03-18T13:30:18.460Z,24.72
2019-03-18T13:32:46.103Z,24.60
2019-03-18T13:35:13.900Z,24.75
2019-03-18T13:37:41.687Z,24.84
2019-03-18T13:40:09.428Z,24.89
2019-03-18T13:42:36.947Z,24.93
2019-03-18T13:45:05.335Z,24.90
2019-03-18T13:47:32.738Z,24.97
2019-03-18T13:50:00.415Z,24.97
2019-03-18T13:52:29.050Z,24.99
2019-03-18T13:54:56.588Z,24.99
2019-03-18T13:57:24.086Z,24.84
2019-03-18T13:59:51.722Z,25.01
2019-03-18T14:02:19.345Z,25.19
2019-03-18T14:04:46.993Z,25.38
2019-03-18T14:07:14.509Z,25.26
2019-03-18T14:09:42.023Z,25.36
2019-03-18T14:12:09.604Z,25.38
2019-03-18T14:14:37.201Z,25.51
2019-03-18T14:17:04.826Z,25.64
2019-03-18T14:19:32.353Z,26.01
2019-03-18T14:21:59.963Z,26.00
2019-03-18T14:24:27.486Z,26.00
2019-03-18T14:26:55.464Z,26.03
2019-03-18T14:29:22.963Z,26.38
2019-03-18T14:31:50.578Z,26.51
2019-03-18T14:34:18.096Z,27.15
2019-03-18T14:36:45.637Z,28.12
2019-03-18T14:39:13.449Z,29.53
2019-03-18T14:41:40.974Z,30.55
2019-03-18T14:44:08.439Z,30.90
2019-03-18T14:46:37.102Z,30.77
2019-03-18T14:49:04.712Z,30.89
2019-03-18T14:51:32.215Z,30.55
2019-03-18T14:53:59.788Z,29.23
2019-03-18T14:56:27.317Z,28.43
2019-03-18T14:58:54.798Z,27.59
2019-03-18T15:01:22.476Z,27.26
2019-03-18T15:03:50.182Z,27.17
2019-03-18T15:06:17.942Z,26.69
2019-03-18T15:08:45.413Z,26.61
2019-03-18T15:11:12.965Z,26.61
2019-03-18T15:13:40.509Z,26.61
2019-03-18T15:16:07.923Z,26.35
2019-03-18T15:18:35.452Z,26.09
2019-03-18T15:21:03.050Z,25.79
2019-03-18T15:23:30.913Z,25.79
2019-03-18T15:25:58.529Z,25.75
2019-03-18T15:28:26.329Z,25.58
2019-03-18T15:30:53.988Z,25.58
2019-03-18T15:33:21.472Z,25.44
2019-03-18T15:35:48.978Z,25.32
2019-03-18T15:38:16.383Z,25.30
2019-03-18T15:40:43.861Z,25.11
2019-03-18T15:43:11.526Z,24.99
2019-03-18T15:45:38.994Z,24.99
2019-03-18T15:48:06.507Z,24.72
2019-03-18T15:50:34.011Z,24.65
2019-03-18T15:53:01.650Z,24.58
2019-03-18T15:55:29.134Z,24.52
2019-03-18T15:57:57.324Z,24.58
2019-03-18T16:00:24.927Z,24.29
2019-03-18T16:02:52.392Z,24.20
2019-03-18T16:05:20.027Z,24.09
2019-03-18T16:07:47.775Z,24.02
2019-03-18T16:10:15.400Z,23.80
2019-03-18T16:12:43.037Z,23.73
2019-03-18T16:15:10.891Z,23.65
2019-03-18T16:17:41.425Z,23.48
2019-03-18T16:20:09.134Z,23.34
2019-03-18T16:22:36.549Z,23.41
2019-03-18T16:25:04.656Z,23.38
2019-03-18T16:27:32.130Z,23.36
2019-03-18T16:29:59.715Z,23.10
2019-03-18T16:32:27.181Z,22.96
2019-03-18T16:34:54.722Z,22.93
2019-03-18T16:37:22.191Z,22.91
2019-03-18T16:39:49.735Z,22.79
2019-03-18T16:42:17.136Z,22.62
2019-03-18T16:44:44.640Z,22.29
2019-03-18T16:47:12.171Z,22.25
2019-03-18T16:49:39.639Z,21.97
2019-03-18T16:52:07.265Z,21.86
2019-03-18T16:54:34.815Z,21.67
2019-03-18T16:57:02.364Z,21.64
2019-03-18T16:59:29.892Z,21.80
2019-03-18T17:01:57.427Z,21.77
2019-03-18T17:04:25.009Z,21.74
2019-03-18T17:06:52.946Z,21.45
2019-03-18T17:09:20.762Z,21.50
2019-03-18T17:11:48.424Z,21.17
2019-03-18T17:14:16.206Z,21.09
2019-03-18T17:16:47.684Z,20.90
2019-03-18T17:19:15.284Z,20.69
2019-03-18T17:21:42.800Z,20.19
2019-03-18T17:24:10.324Z,19.94
2019-03-18T17:26:37.829Z,19.57
2019-03-18T17:29:05.249Z,19.36
2019-03-18T17:31:32.964Z,19.34
2019-03-18T17:34:00.478Z,19.38
2019-03-18T17:36:28.092Z,19.52
2019-03-18T17:38:55.600Z,19.55
2019-03-18T17:41:23.003Z,19.52
2019-03-18T17:43:50.495Z,19.37
2019-03-18T17:46:17.953Z,19.29
2019-03-18T17:48:45.543Z,19.08
2019-03-18T17:51:13.131Z,18.94
2019-03-18T17:53:40.765Z,18.97
2019-03-18T17:56:08.426Z,19.19
2019-03-18T17:58:36.182Z,19.11
2019-03-18T18:01:04.785Z,19.05
2019-03-18T18:03:32.425Z,19.20
2019-03-18T18:05:59.920Z,19.30
2019-03-18T18:08:27.450Z,19.39
2019-03-18T18:10:55.060Z,19.52
2019-03-18T18:13:22.597Z,19.49
2019-03-18T18:15:50.143Z,19.34
2019-03-18T18:18:17.721Z,19.32
2019-03-18T18:20:45.291Z,19.21
2019-03-18T18:23:14.777Z,19.25
2019-03-18T18:25:42.485Z,19.30
2019-03-18T18:28:10.054Z,19.22
2019-03-18T18:30:37.570Z,19.32
2019-03-18T18:33:07.792Z,19.24
2019-03-18T18:35:34.534Z,19.11
2019-03-18T18:38:02.362Z,19.18
2019-03-18T18:40:30.099Z,19.19
2019-03-18T18:42:57.886Z,19.20
2019-03-18T18:45:25.268Z,19.03
2019-03-18T18:47:52.778Z,18.99
2019-03-18T18:50:20.410Z,18.81
2019-03-18T18:52:49.128Z,18.63
2019-03-18T18:55:17.468Z,18.74
2019-03-18T18:57:44.950Z,18.73
2019-03-18T19:00:14.150Z,18.68
2019-03-18T19:02:41.778Z,18.34
2019-03-18T19:05:10.599Z,18.20
2019-03-18T19:07:38.720Z,18.02
2019-03-18T19:10:08.403Z,17.92
2019-03-18T19:12:35.978Z,17.86
2019-03-18T19:15:04.037Z,17.86
2019-03-18T19:17:31.524Z,17.75
2019-03-18T19:19:59.001Z,17.62
2019-03-18T19:22:26.804Z,17.48
2019-03-18T19:24:54.676Z,17.40
2019-03-18T19:27:22.116Z,17.33
2019-03-18T19:29:49.651Z,17.17
2019-03-18T19:32:17.469Z,17.04
2019-03-18T19:34:49.187Z,17.15
2019-03-18T19:37:16.634Z,16.98
2019-03-18T19:39:44.150Z,16.61
2019-03-18T19:42:12.475Z,16.39
2019-03-18T19:44:40.080Z,16.18
2019-03-18T19:47:07.604Z,16.10
2019-03-18T19:49:36.554Z,15.95
2019-03-18T19:52:04.213Z,15.95
2019-03-18T19:54:32.839Z,15.92
2019-03-18T19:57:00.750Z,15.90
2019-03-18T19:59:28.261Z,15.95
2019-03-18T20:01:55.738Z,15.85
2019-03-18T20:04:23.578Z,15.90
2019-03-18T20:06:51.127Z,15.93
2019-03-18T20:09:19.180Z,15.82
2019-03-18T20:11:46.748Z,15.73
2019-03-18T20:14:14.511Z,15.63
2019-03-18T20:16:42.961Z,15.44
2019-03-18T20:19:10.421Z,15.28
2019-03-18T20:21:37.899Z,15.19
2019-03-18T20:24:05.407Z,15.19
2019-03-18T20:26:33.261Z,15.20
2019-03-18T20:29:01.136Z,15.29
2019-03-18T20:31:28.698Z,15.43
2019-03-18T20:33:56.183Z,15.28
2019-03-18T20:36:24.021Z,15.14
2019-03-18T20:38:51.448Z,14.95
2019-03-18T20:41:19.315Z,14.80
2019-03-18T20:43:47.086Z,14.74
2019-03-18T20:46:14.524Z,14.70
2019-03-18T20:48:42.371Z,14.67
2019-03-18T20:51:09.927Z,14.66
2019-03-18T20:53:37.440Z,14.67
2019-03-18T20:56:05.001Z,14.50
2019-03-18T20:58:32.479Z,14.59
2019-03-18T21:00:59.919Z,14.45
2019-03-18T21:03:27.347Z,14.25
2019-03-18T21:05:54.861Z,14.19
2019-03-18T21:08:22.437Z,14.45
2019-03-18T21:10:49.892Z,14.26
2019-03-18T21:13:17.357Z,14.15
2019-03-18T21:15:44.981Z,14.02
2019-03-18T21:18:12.501Z,14.00
2019-03-18T21:20:40.107Z,13.98
2019-03-18T21:23:08.486Z,14.19
2019-03-18T21:25:36.019Z,14.15
2019-03-18T21:28:03.576Z,14.16
2019-03-18T21:30:31.098Z,14.17
2019-03-18T21:32:59.642Z,14.42
2019-03-18T21:35:27.162Z,14.25
2019-03-18T21:37:54.637Z,14.50
2019-03-18T21:40:22.234Z,14.78
2019-03-18T21:42:49.848Z,14.78
2019-03-18T21:45:17.368Z,14.80
2019-03-18T21:47:44.897Z,14.85
2019-03-18T21:50:13.034Z,14.79
2019-03-18T21:52:40.854Z,14.68
2019-03-18T21:55:08.551Z,14.40
2019-03-18T21:57:36.111Z,14.08
2019-03-18T22:00:04.523Z,14.18
2019-03-18T22:02:32.214Z,13.76
2019-03-18T22:04:59.710Z,14.03
2019-03-18T22:07:27.165Z,14.13
2019-03-18T22:09:54.687Z,13.91
2019-03-18T22:12:22.187Z,13.93
2019-03-18T22:14:49.644Z,14.20
2019-03-18T22:17:17.140Z,14.26
2019-03-18T22:19:44.662Z,14.20
2019-03-18T22:22:12.170Z,14.20
2019-03-18T22:24:45.395Z,13.98
2019-03-18T22:27:09.019Z,13.87
2019-03-18T22:29:36.529Z,13.92
2019-03-18T22:32:03.959Z,14.03
2019-03-18T22:34:31.468Z,14.01
2019-03-18T22:36:58.988Z,13.89
2019-03-18T22:39:26.507Z,14.02
2019-03-18T22:41:53.965Z,13.93
2019-03-18T22:44:21.396Z,13.51
2019-03-18T22:46:48.863Z,13.50
2019-03-18T22:49:16.376Z,13.53
2019-03-18T22:51:43.856Z,13.26
2019-03-18T22:54:11.328Z,13.13
2019-03-18T22:56:38.765Z,12.86
2019-03-18T22:59:06.402Z,13.10
2019-03-18T23:01:33.955Z,13.09
2019-03-18T23:04:02.672Z,13.00
2019-03-18T23:06:30.263Z,12.85
2019-03-18T23:08:57.787Z,12.78
2019-03-18T23:11:25.332Z,12.91
2019-03-18T23:13:52.907Z,12.96
2019-03-18T23:16:20.366Z,13.17
2019-03-18T23:18:47.933Z,12.95
2019-03-18T23:21:15.467Z,13.19
2019-03-18T23:23:42.955Z,13.19
2019-03-18T23:26:10.346Z,13.08
2019-03-18T23:28:37.810Z,13.01
2019-03-18T23:31:05.277Z,13.14
2019-03-18T23:33:32.776Z,13.13
2019-03-18T23:36:00.313Z,13.24
2019-03-18T23:38:27.788Z,13.19
2019-03-18T23:40:55.307Z,13.37
2019-03-18T23:43:22.786Z,13.34
2019-03-18T23:45:50.187Z,13.24
2019-03-18T23:48:17.669Z,12.92
2019-03-18T23:50:45.194Z,13.21
2019-03-18T23:53:12.658Z,13.14
2019-03-18T23:55:40.186Z,12.93
2019-03-18T23:58:09.187Z,12.85
